Time;durP1;ratioP1;P1;durP2;ratioP2;P2;SDS_P1;SDS_P2;PMS_P1;PMS_P2;Temp;Humidity;BMP_temperature;BMP_pressure;BME280_temperature;BME280_humidity;BME280_pressure;Samples;Min_cycle;Max_cycle;Signal;HPM_P1;HPM_P2
2020/12/18 00:01:44;;;;;;;61.28;4.55;;;17.40;69.40;;;;;;5091510;28;20044;-51
2020/12/18 00:04:11;;;;;;;48.70;5.60;;;17.40;69.50;;;;;;5090919;28;20400;-50
2020/12/18 00:06:37;;;;;;;45.60;3.55;;;17.50;69.40;;;;;;5091573;28;20131;-51
2020/12/18 00:09:05;;;;;;;25.98;3.10;;;17.50;69.30;;;;;;5099645;28;20051;-50
2020/12/18 00:11:32;;;;;;;33.65;3.38;;;17.60;69.20;;;;;;5089005;28;20043;-52
2020/12/18 00:13:58;;;;;;;32.58;3.88;;;17.60;69.00;;;;;;5093663;28;20180;-48
2020/12/18 00:16:26;;;;;;;25.60;3.83;;;17.70;68.70;;;;;;5087948;28;20385;-49
2020/12/18 00:18:53;;;;;;;30.58;4.10;;;17.70;68.50;;;;;;5099596;28;20450;-50
2020/12/18 00:21:22;;;;;;;27.38;3.40;;;17.70;68.30;;;;;;5100805;28;20048;-52
2020/12/18 00:23:48;;;;;;;26.50;4.18;;;17.80;68.20;;;;;;5091809;28;20036;-47
2020/12/18 00:26:15;;;;;;;27.10;2.17;;;17.80;67.90;;;;;;5093840;28;20048;-47
2020/12/18 00:28:42;;;;;;;25.60;2.13;;;17.90;67.70;;;;;;5096014;28;20547;-59
2020/12/18 00:31:09;;;;;;;43.05;5.05;;;17.90;67.50;;;;;;5101200;28;20043;-51
2020/12/18 00:33:36;;;;;;;35.88;3.72;;;17.90;67.30;;;;;;5090087;28;20065;-47
2020/12/18 00:36:03;;;;;;;42.63;3.75;;;18.00;67.20;;;;;;5091869;28;20068;-48
2020/12/18 00:38:30;;;;;;;37.45;4.45;;;18.00;66.80;;;;;;5090699;28;20132;-47
2020/12/18 00:40:57;;;;;;;42.65;6.22;;;18.00;66.50;;;;;;5097942;28;20043;-47
2020/12/18 00:43:23;;;;;;;23.20;2.30;;;18.00;66.30;;;;;;5094582;28;20044;-51
2020/12/18 00:45:50;;;;;;;28.67;4.35;;;18.10;66.30;;;;;;5091044;28;20047;-46
2020/12/18 00:48:16;;;;;;;32.75;3.10;;;18.10;66.10;;;;;;5096702;28;20043;-45
2020/12/18 00:50:43;;;;;;;26.30;3.28;;;18.10;66.00;;;;;;5091819;28;20059;-47
2020/12/18 00:53:10;;;;;;;32.58;3.78;;;18.20;66.00;;;;;;5092288;28;20032;-48
2020/12/18 00:55:40;;;;;;;38.90;3.92;;;18.20;65.90;;;;;;5088168;28;20055;-49
2020/12/18 00:58:06;;;;;;;22.02;3.28;;;18.20;65.90;;;;;;5095078;28;20079;-55
2020/12/18 01:00:33;;;;;;;33.70;2.88;;;18.20;65.80;;;;;;5096106;28;20069;-50
2020/12/18 01:03:06;;;;;;;18.33;2.70;;;18.20;65.70;;;;;;5090466;28;20491;-55
2020/12/18 01:05:32;;;;;;;55.15;4.50;;;18.20;65.60;;;;;;5090148;28;20051;-53
2020/12/18 01:07:59;;;;;;;25.27;4.38;;;18.30;65.60;;;;;;5091215;28;20089;-49
2020/12/18 01:10:28;;;;;;;11.82;3.50;;;18.30;65.40;;;;;;5087425;28;20066;-49
2020/12/18 01:12:55;;;;;;;29.60;3.75;;;18.30;65.40;;;;;;5089498;28;20047;-46
2020/12/18 01:15:26;;;;;;;27.55;2.78;;;18.30;65.20;;;;;;5087174;28;20083;-54
2020/12/18 01:17:53;;;;;;;28.77;3.10;;;18.40;65.20;;;;;;5095890;28;20044;-46
2020/12/18 01:20:21;;;;;;;21.08;2.13;;;18.30;65.00;;;;;;5086478;28;20051;-49
2020/12/18 01:22:48;;;;;;;29.30;3.03;;;18.40;64.90;;;;;;5088766;28;20048;-50
2020/12/18 01:25:16;;;;;;;34.58;3.58;;;18.40;64.90;;;;;;5090915;28;20048;-50
2020/12/18 01:27:45;;;;;;;26.73;4.00;;;18.40;64.70;;;;;;5109869;27;20503;-56
2020/12/18 01:30:13;;;;;;;21.88;4.30;;;18.40;64.70;;;;;;5088389;28;20054;-49
2020/12/18 01:32:44;;;;;;;23.38;2.75;;;18.40;64.90;;;;;;5089150;28;20486;-53
2020/12/18 01:35:11;;;;;;;26.45;3.10;;;18.50;65.00;;;;;;5096829;28;20134;-56
2020/12/18 01:37:50;;;;;;;27.67;3.40;;;18.50;64.80;;;;;;5106378;27;20072;-52
2020/12/18 01:40:17;;;;;;;23.40;1.63;;;18.50;64.70;;;;;;5088364;28;20731;-53
2020/12/18 01:42:43;;;;;;;43.55;3.15;;;18.50;64.50;;;;;;5085296;28;20040;-54
2020/12/18 01:45:10;;;;;;;32.45;2.30;;;18.50;64.40;;;;;;5096669;28;20044;-48
2020/12/18 01:47:56;;;;;;;26.65;1.92;;;18.60;64.30;;;;;;5089318;28;20135;-54
2020/12/18 01:50:25;;;;;;;19.15;1.45;;;18.60;64.20;;;;;;5086620;28;20470;-50
2020/12/18 01:52:56;;;;;;;17.95;3.08;;;18.60;64.20;;;;;;5089393;28;20503;-53
2020/12/18 01:55:34;;;;;;;14.48;2.63;;;18.60;64.10;;;;;;5088428;28;20047;-48
2020/12/18 01:58:02;;;;;;;19.45;2.28;;;18.60;64.10;;;;;;5086606;28;20062;-50
2020/12/18 02:00:37;;;;;;;15.82;2.10;;;18.60;64.00;;;;;;5086850;28;20101;-48
2020/12/18 02:03:07;;;;;;;18.40;2.85;;;18.60;63.90;;;;;;5096253;28;20112;-52
2020/12/18 02:05:58;;;;;;;19.08;2.35;;;18.60;63.60;;;;;;5091562;28;20051;-49
2020/12/18 02:08:41;;;;;;;21.05;3.08;;;18.60;63.50;;;;;;5086710;28;20136;-49
2020/12/18 02:11:21;;;;;;;16.20;1.33;;;18.70;63.30;;;;;;5083546;28;20051;-53
2020/12/18 02:13:52;;;;;;;12.98;1.38;;;18.60;63.10;;;;;;5087043;28;20059;-51
2020/12/18 02:16:18;;;;;;;14.15;2.33;;;18.60;62.90;;;;;;5100860;28;20078;-51
2020/12/18 02:18:46;;;;;;;19.80;1.60;;;18.60;62.70;;;;;;5084842;28;20063;-50
2020/12/18 02:21:12;;;;;;;7.22;1.55;;;18.60;62.60;;;;;;5087131;28;20036;-49
2020/12/18 02:23:40;;;;;;;8.88;1.40;;;18.70;62.50;;;;;;5067798;28;20149;-55
2020/12/18 02:26:09;;;;;;;12.52;1.17;;;18.60;62.30;;;;;;5079036;28;20048;-51
2020/12/18 02:28:41;;;;;;;11.32;1.85;;;18.60;62.20;;;;;;5075560;28;20500;-62
2020/12/18 02:31:09;;;;;;;12.65;1.48;;;18.60;62.10;;;;;;5085931;28;20093;-50
2020/12/18 02:33:41;;;;;;;8.32;1.00;;;18.70;62.20;;;;;;5084562;28;20052;-51
2020/12/18 02:36:13;;;;;;;9.75;0.93;;;18.60;62.00;;;;;;5086910;28;20052;-52
2020/12/18 02:38:44;;;;;;;7.22;1.70;;;18.60;61.90;;;;;;5082339;28;20044;-50
2020/12/18 02:41:11;;;;;;;11.40;1.05;;;18.60;61.80;;;;;;5084554;28;20046;-50
2020/12/18 02:43:58;;;;;;;6.65;1.52;;;18.60;61.60;;;;;;5086057;28;20052;-49
2020/12/18 02:46:25;;;;;;;9.68;0.85;;;18.60;61.50;;;;;;5084862;28;20127;-50
2020/12/18 02:48:54;;;;;;;11.52;1.52;;;18.60;61.40;;;;;;5084906;28;20530;-51
2020/12/18 02:51:30;;;;;;;6.30;2.25;;;18.60;61.30;;;;;;5083200;28;20135;-51
2020/12/18 02:54:19;;;;;;;4.10;0.70;;;18.60;61.30;;;;;;5085751;28;20645;-52
2020/12/18 02:57:07;;;;;;;;;;;18.60;61.30;;;;;;5074337;28;20048;-50
2020/12/18 02:59:54;;;;;;;13.57;1.80;;;18.60;61.30;;;;;;5024863;28;20712;-50
2020/12/18 03:02:21;;;;;;;2.30;0.98;;;18.50;61.30;;;;;;5007231;28;20184;-50
2020/12/18 03:04:51;;;;;;;6.72;1.15;;;18.50;61.20;;;;;;5011144;28;20045;-48
2020/12/18 03:07:43;;;;;;;10.93;1.58;;;18.50;61.00;;;;;;5003967;28;20095;-50
2020/12/18 03:10:11;;;;;;;4.13;1.85;;;18.50;60.90;;;;;;5010633;28;20713;-52
2020/12/18 03:12:38;;;;;;;2.90;0.50;;;18.50;60.70;;;;;;5023779;28;20541;-49
2020/12/18 03:15:05;;;;;;;4.35;0.82;;;18.50;60.60;;;;;;5008759;28;20151;-49
2020/12/18 03:17:51;;;;;;;11.45;0.82;;;18.50;60.50;;;;;;5024554;28;20129;-51
2020/12/18 03:20:17;;;;;;;2.33;0.40;;;18.50;60.40;;;;;;5023337;28;20052;-49
2020/12/18 03:23:07;;;;;;;3.90;0.82;;;18.50;60.30;;;;;;4983785;28;20149;-50
2020/12/18 03:25:52;;;;;;;5.03;0.90;;;18.50;60.20;;;;;;4983733;28;20046;-50
2020/12/18 03:28:27;;;;;;;5.10;0.98;;;18.50;60.20;;;;;;4984035;28;20054;-52
2020/12/18 03:30:55;;;;;;;1.63;0.20;;;18.40;60.00;;;;;;4984213;28;20084;-49
2020/12/18 03:33:22;;;;;;;2.92;0.60;;;18.40;59.90;;;;;;4984299;28;20049;-49
2020/12/18 03:35:51;;;;;;;2.08;0.80;;;18.40;59.90;;;;;;4985371;28;20054;-53
2020/12/18 03:38:17;;;;;;;1.38;0.57;;;18.40;59.80;;;;;;5007698;28;20042;-49
2020/12/18 03:40:44;;;;;;;7.35;0.68;;;18.50;59.80;;;;;;5010246;28;20045;-49
2020/12/18 03:43:18;;;;;;;7.03;0.93;;;18.40;59.70;;;;;;5002255;28;20061;-49
2020/12/18 03:45:45;;;;;;;3.40;1.05;;;18.40;59.70;;;;;;5005892;28;20579;-49
2020/12/18 03:48:32;;;;;;;1.98;0.55;;;18.40;59.60;;;;;;5003668;28;20042;-52
2020/12/18 03:51:22;;;;;;;1.20;0.25;;;18.40;59.60;;;;;;5005959;28;20488;-56
2020/12/18 03:53:50;;;;;;;2.78;0.30;;;18.40;59.60;;;;;;4993959;28;20057;-53
2020/12/18 03:56:32;;;;;;;2.00;0.40;;;18.40;59.50;;;;;;5020139;28;20122;-56
2020/12/18 03:59:17;;;;;;;8.13;0.47;;;18.40;59.60;;;;;;5006203;28;20101;-55
2020/12/18 04:01:57;;;;;;;1.27;0.40;;;18.30;59.40;;;;;;5093703;28;20052;-52
2020/12/18 04:04:25;;;;;;;3.15;0.30;;;18.40;59.50;;;;;;5077345;28;20724;-49
2020/12/18 04:06:55;;;;;;;2.03;0.43;;;18.40;59.40;;;;;;5088243;28;20670;-52
2020/12/18 04:09:22;;;;;;;2.10;0.30;;;18.30;59.30;;;;;;5088828;28;20159;-50
2020/12/18 04:11:56;;;;;;;2.42;1.15;;;18.30;59.30;;;;;;5092202;28;20139;-51
2020/12/18 04:14:31;;;;;;;0.90;0.32;;;18.30;59.20;;;;;;5088692;28;20186;-49
2020/12/18 04:17:19;;;;;;;1.63;0.35;;;18.30;59.20;;;;;;5088591;28;20052;-50
2020/12/18 04:19:50;;;;;;;4.88;0.90;;;18.30;59.10;;;;;;5088620;28;20066;-49
2020/12/18 04:22:18;;;;;;;3.67;0.35;;;18.30;59.10;;;;;;5067671;28;20053;-48
2020/12/18 04:25:07;;;;;;;1.40;0.30;;;18.30;59.10;;;;;;5075844;28;20083;-49
2020/12/18 04:27:41;;;;;;;2.05;0.68;;;18.30;59.00;;;;;;5072075;28;20044;-49
2020/12/18 04:30:09;;;;;;;3.28;0.70;;;18.20;58.90;;;;;;5084786;28;20048;-48
2020/12/18 04:32:39;;;;;;;3.15;0.30;;;18.30;59.00;;;;;;5088112;28;20048;-49
2020/12/18 04:35:06;;;;;;;2.25;0.40;;;18.30;59.00;;;;;;5088033;28;20051;-49
2020/12/18 04:37:53;;;;;;;1.17;0.55;;;18.30;58.90;;;;;;5086646;28;20521;-57
2020/12/18 04:40:35;;;;;;;4.13;0.82;;;18.30;58.90;;;;;;5095250;28;20055;-50
2020/12/18 04:43:10;;;;;;;2.17;0.43;;;18.20;58.80;;;;;;5089624;28;20048;-49
2020/12/18 04:45:37;;;;;;;2.25;0.55;;;18.20;58.90;;;;;;5087925;28;20055;-51
2020/12/18 04:48:13;;;;;;;2.80;0.38;;;18.30;58.90;;;;;;5090144;28;20150;-53
2020/12/18 04:50:47;;;;;;;1.95;0.40;;;18.20;58.80;;;;;;5087587;28;20050;-51
2020/12/18 04:53:26;;;;;;;6.45;0.65;;;18.20;58.80;;;;;;5087336;28;20529;-53
2020/12/18 04:56:10;;;;;;;3.25;0.32;;;18.20;58.70;;;;;;5083189;28;20349;-50
2020/12/18 04:58:59;;;;;;;1.38;0.47;;;18.20;58.70;;;;;;5077394;28;20044;-48
2020/12/18 05:01:54;;;;;;;0.95;0.20;;;18.20;58.80;;;;;;5081762;28;20122;-50
2020/12/18 05:04:21;;;;;;;5.32;0.40;;;18.20;58.70;;;;;;5086983;28;20048;-48
2020/12/18 05:07:03;;;;;;;1.33;0.30;;;18.20;58.60;;;;;;5084841;28;20046;-48
2020/12/18 05:09:41;;;;;;;1.10;0.38;;;18.20;58.60;;;;;;5086459;28;20126;-48
2020/12/18 05:12:09;;;;;;;2.15;0.10;;;18.20;58.60;;;;;;5089480;28;20046;-50
2020/12/18 05:14:39;;;;;;;0.50;0.20;;;18.20;58.60;;;;;;5086860;28;20055;-48
2020/12/18 05:17:15;;;;;;;1.88;0.10;;;18.20;58.50;;;;;;5090893;28;20090;-48
2020/12/18 05:19:45;;;;;;;1.52;0.20;;;18.20;58.40;;;;;;5086993;28;20127;-49
2020/12/18 05:22:31;;;;;;;2.13;0.20;;;18.20;58.40;;;;;;5088146;28;20055;-50
2020/12/18 05:25:10;;;;;;;1.60;0.15;;;18.20;58.40;;;;;;5086798;28;20747;-53
2020/12/18 05:27:42;;;;;;;1.88;0.15;;;18.20;58.20;;;;;;5069644;28;20059;-48
2020/12/18 05:30:11;;;;;;;2.58;0.10;;;18.20;58.20;;;;;;5083702;28;20048;-49
2020/12/18 05:32:37;;;;;;;3.50;1.65;;;18.20;58.20;;;;;;5083854;28;20036;-52
2020/12/18 05:35:17;;;;;;;0.70;0.30;;;18.20;58.20;;;;;;5090587;28;20048;-50
2020/12/18 05:37:58;;;;;;;0.43;0.30;;;18.20;58.10;;;;;;5078931;28;20136;-50
2020/12/18 05:40:47;;;;;;;1.73;0.20;;;18.20;58.10;;;;;;5079159;28;20044;-53
2020/12/18 05:43:34;;;;;;;1.17;0.20;;;18.20;58.10;;;;;;5091304;28;20571;-50
2020/12/18 05:46:23;;;;;;;4.25;0.20;;;18.20;58.00;;;;;;5086934;28;20044;-52
2020/12/18 05:49:07;;;;;;;0.50;0.13;;;18.10;58.00;;;;;;5089678;28;20040;-51
2020/12/18 05:51:41;;;;;;;3.20;0.43;;;18.10;58.00;;;;;;5085995;28;20048;-49
2020/12/18 05:54:13;;;;;;;5.00;0.30;;;18.10;58.00;;;;;;5083930;28;20055;-52
2020/12/18 05:56:50;;;;;;;3.85;0.17;;;18.10;57.90;;;;;;5087876;28;20071;-49
2020/12/18 05:59:19;;;;;;;4.30;0.30;;;18.10;57.80;;;;;;5103729;28;20079;-50
2020/12/18 06:01:54;;;;;;;0.68;0.38;;;18.10;57.80;;;;;;5086977;28;20462;-51
2020/12/18 06:04:36;;;;;;;6.13;0.50;;;18.10;57.80;;;;;;5081804;28;20052;-52
2020/12/18 06:07:10;;;;;;;1.38;0.20;;;18.10;57.80;;;;;;5099622;28;20127;-53
2020/12/18 06:09:57;;;;;;;;;;;18.10;57.80;;;;;;5071389;28;20050;-54
2020/12/18 06:12:28;;;;;;;1.33;0.20;;;18.00;57.80;;;;;;5100947;28;19924;-53
2020/12/18 06:14:54;;;;;;;1.98;0.25;;;18.00;57.90;;;;;;5086305;28;20055;-54
2020/12/18 06:17:28;;;;;;;1.38;0.15;;;18.00;57.90;;;;;;5086450;28;20052;-53
2020/12/18 06:19:59;;;;;;;1.85;0.17;;;18.00;57.80;;;;;;5085757;28;20036;-54
2020/12/18 06:22:37;;;;;;;1.10;0.10;;;18.00;57.70;;;;;;5095070;28;20061;-54
2020/12/18 06:25:20;;;;;;;0.60;0.20;;;18.00;57.60;;;;;;5086200;28;20113;-48
2020/12/18 06:28:06;;;;;;;2.53;0.20;;;18.00;57.60;;;;;;5071753;28;20059;-50
2020/12/18 06:31:00;;;;;;;3.53;0.30;;;18.00;57.60;;;;;;5071184;28;20121;-54
2020/12/18 06:34:04;;;;;;;1.38;0.73;;;18.00;57.60;;;;;;5082174;28;20848;-54
2020/12/18 06:37:00;;;;;;;1.58;0.20;;;18.00;57.60;;;;;;5068505;28;20574;-52
2020/12/18 06:39:54;;;;;;;3.70;0.25;;;18.00;57.60;;;;;;5070290;28;20127;-51
2020/12/18 06:43:00;;;;;;;2.83;0.20;;;18.00;57.60;;;;;;5074963;28;20051;-54
2020/12/18 06:46:06;;;;;;;3.30;0.20;;;17.90;57.50;;;;;;5086086;28;20281;-53
2020/12/18 06:48:51;;;;;;;1.17;0.10;;;18.00;57.50;;;;;;5085705;28;20047;-53
2020/12/18 06:51:46;;;;;;;0.77;0.20;;;18.00;57.60;;;;;;5084052;28;20567;-50
2020/12/18 06:54:55;;;;;;;0.63;0.20;;;18.00;57.50;;;;;;5099855;28;20044;-52
2020/12/18 06:57:22;;;;;;;0.27;0.27;;;17.90;57.40;;;;;;5098544;28;20463;-51
2020/12/18 06:59:49;;;;;;;0.95;0.30;;;17.90;57.40;;;;;;5083386;28;20090;-55
2020/12/18 07:02:36;;;;;;;2.22;0.25;;;17.90;57.30;;;;;;5082147;28;20457;-50
2020/12/18 07:05:03;;;;;;;0.40;0.10;;;18.00;57.30;;;;;;5082573;28;20598;-53
2020/12/18 07:07:40;;;;;;;0.30;0.25;;;18.00;57.30;;;;;;5085873;28;20071;-52
2020/12/18 07:10:08;;;;;;;;;;;18.00;57.30;;;;;;5086441;28;20127;-55
2020/12/18 07:12:36;;;;;;;1.00;0.13;;;17.90;57.30;;;;;;5085005;28;20017;-49
2020/12/18 07:15:06;;;;;;;0.40;0.10;;;17.90;57.40;;;;;;5084907;28;20039;-49
2020/12/18 07:17:32;;;;;;;2.58;0.82;;;17.90;57.30;;;;;;5083758;28;20488;-53
2020/12/18 07:19:59;;;;;;;0.93;0.20;;;17.90;57.30;;;;;;5082171;28;20039;-52
2020/12/18 07:22:28;;;;;;;0.95;0.17;;;17.90;57.20;;;;;;5085911;28;20047;-49
2020/12/18 07:24:54;;;;;;;3.30;0.10;;;17.90;57.20;;;;;;5083651;28;20040;-54
2020/12/18 07:27:21;;;;;;;0.57;0.13;;;17.90;57.10;;;;;;5085283;28;20052;-53
2020/12/18 07:29:51;;;;;;;1.75;0.20;;;17.90;57.00;;;;;;5086543;28;20051;-51
2020/12/18 07:32:17;;;;;;;0.32;0.20;;;17.90;56.90;;;;;;5085350;28;20123;-53
2020/12/18 07:34:44;;;;;;;1.75;0.20;;;17.90;56.90;;;;;;5098383;28;20064;-53
2020/12/18 07:37:12;;;;;;;6.35;0.13;;;17.90;56.90;;;;;;5082972;28;20593;-53
2020/12/18 07:39:39;;;;;;;2.83;0.20;;;17.90;56.90;;;;;;5084751;28;20079;-53
2020/12/18 07:42:06;;;;;;;0.98;0.20;;;17.90;56.90;;;;;;5087407;28;20050;-55
2020/12/18 07:44:33;;;;;;;2.75;0.30;;;17.90;56.90;;;;;;5101527;28;20051;-52
2020/12/18 07:47:02;;;;;;;3.15;0.30;;;17.90;57.40;;;;;;5085516;28;20713;-49
2020/12/18 07:49:29;;;;;;;3.60;0.30;;;17.90;56.90;;;;;;5085666;28;20144;-48
2020/12/18 07:51:57;;;;;;;4.15;0.80;;;17.90;56.80;;;;;;5084767;28;20418;-52
2020/12/18 07:54:27;;;;;;;2.25;0.45;;;17.90;56.90;;;;;;5083846;28;20048;-49
2020/12/18 07:57:05;;;;;;;4.22;0.30;;;17.90;56.90;;;;;;5081087;28;20086;-54
2020/12/18 07:59:32;;;;;;;8.95;0.30;;;17.90;56.90;;;;;;5083620;28;20048;-51
2020/12/18 08:01:58;;;;;;;2.10;0.98;;;17.90;56.90;;;;;;5084862;28;20079;-51
2020/12/18 08:04:26;;;;;;;2.05;0.13;;;17.90;57.50;;;;;;5085216;28;20410;-53
2020/12/18 08:06:54;;;;;;;3.03;1.00;;;17.90;56.90;;;;;;5085392;28;20036;-51
2020/12/18 08:09:20;;;;;;;2.65;0.30;;;17.90;56.90;;;;;;5086202;28;20056;-52
2020/12/18 08:11:50;;;;;;;2.88;0.68;;;17.90;57.00;;;;;;5086303;28;20044;-52
2020/12/18 08:14:17;;;;;;;2.55;0.55;;;17.90;56.90;;;;;;5081861;28;20051;-53
2020/12/18 08:16:44;;;;;;;0.95;0.20;;;18.00;57.00;;;;;;5075823;28;20055;-50
2020/12/18 08:19:12;;;;;;;0.30;0.22;;;18.00;57.00;;;;;;5102113;28;20044;-51
2020/12/18 08:21:41;;;;;;;1.17;0.32;;;18.00;57.10;;;;;;5088786;28;20044;-48
2020/12/18 08:24:14;;;;;;;3.53;0.20;;;18.00;57.20;;;;;;5091348;28;20074;-46
2020/12/18 08:26:45;;;;;;;1.60;0.50;;;18.00;57.20;;;;;;5085921;28;20131;-50
2020/12/18 08:29:13;;;;;;;2.17;0.63;;;18.00;57.20;;;;;;5082894;28;20130;-51
2020/12/18 08:31:43;;;;;;;9.73;0.20;;;18.00;57.10;;;;;;5084910;28;20043;-53
2020/12/18 08:34:12;;;;;;;3.45;0.40;;;18.00;57.10;;;;;;5085560;28;20105;-51
2020/12/18 08:36:45;;;;;;;1.75;0.20;;;17.90;57.00;;;;;;5086677;28;20534;-51
2020/12/18 08:39:13;;;;;;;1.02;0.82;;;18.00;57.00;;;;;;5097169;28;20044;-51
2020/12/18 08:41:46;;;;;;;3.40;0.40;;;18.00;57.00;;;;;;5100760;28;20058;-53
2020/12/18 08:44:15;;;;;;;5.47;0.30;;;18.00;57.50;;;;;;5083877;28;20048;-57
2020/12/18 08:46:42;;;;;;;3.03;0.30;;;18.00;56.90;;;;;;5088945;28;20092;-51
2020/12/18 08:49:20;;;;;;;1.38;0.35;;;18.00;56.80;;;;;;5089651;28;20032;-51
2020/12/18 08:51:49;;;;;;;2.97;0.77;;;18.00;56.80;;;;;;5092591;28;20432;-47
2020/12/18 08:54:28;;;;;;;3.50;1.00;;;18.00;56.80;;;;;;5074538;28;20105;-48
2020/12/18 08:57:15;;;;;;;8.18;0.90;;;18.00;56.80;;;;;;5074442;28;20428;-52
2020/12/18 08:59:54;;;;;;;;;;;18.00;56.80;;;;;;5074560;28;20064;-59
2020/12/18 09:02:22;;;;;;;3.25;1.33;;;18.00;56.90;;;;;;5079996;28;19930;-60
2020/12/18 09:05:08;;;;;;;4.13;0.75;;;18.00;57.10;;;;;;5074168;28;20059;-62
2020/12/18 09:07:40;;;;;;;8.35;0.68;;;18.00;57.30;;;;;;5076617;28;20439;-59
2020/12/18 09:10:07;;;;;;;2.55;1.55;;;18.00;57.60;;;;;;5073969;28;20135;-51
2020/12/18 09:12:39;;;;;;;12.77;1.02;;;18.00;54.30;;;;;;5076999;28;20053;-51
2020/12/18 09:15:20;;;;;;;2.30;1.45;;;18.00;52.10;;;;;;5074989;28;20045;-51
2020/12/18 09:17:46;;;;;;;6.63;1.45;;;17.80;51.00;;;;;;5081460;28;20059;-47
2020/12/18 09:20:24;;;;;;;2.70;1.10;;;17.70;50.90;;;;;;5074543;28;20115;-52
2020/12/18 09:23:00;;;;;;;1.42;1.15;;;17.50;50.90;;;;;;5077083;28;20059;-49
2020/12/18 09:25:27;;;;;;;8.40;1.42;;;17.40;51.40;;;;;;5077529;28;20325;-47
2020/12/18 09:27:55;;;;;;;4.38;1.95;;;17.30;50.80;;;;;;5075861;28;20059;-46
2020/12/18 09:30:23;;;;;;;9.50;2.35;;;17.20;51.20;;;;;;5084747;28;20142;-50
2020/12/18 09:33:08;;;;;;;3.28;1.70;;;17.10;50.60;;;;;;5081429;28;20048;-51
2020/12/18 09:35:35;;;;;;;4.10;1.65;;;17.10;50.60;;;;;;5080339;28;20059;-57
2020/12/18 09:38:03;;;;;;;2.70;1.60;;;16.90;50.70;;;;;;5080029;28;20058;-49
2020/12/18 09:40:29;;;;;;;6.55;1.83;;;16.90;50.70;;;;;;5076982;28;20127;-50
2020/12/18 09:42:57;;;;;;;11.30;2.45;;;16.80;50.70;;;;;;5079109;28;20492;-47
2020/12/18 09:45:23;;;;;;;3.55;2.53;;;16.70;50.90;;;;;;5078896;28;20059;-50
2020/12/18 09:47:50;;;;;;;6.60;1.90;;;16.70;51.00;;;;;;5069120;28;20131;-47
2020/12/18 09:50:17;;;;;;;2.55;1.80;;;16.60;51.10;;;;;;5075365;28;20102;-49
2020/12/18 09:52:43;;;;;;;9.25;2.83;;;16.50;51.20;;;;;;5081330;28;20074;-52
2020/12/18 09:55:10;;;;;;;4.63;2.15;;;16.40;51.30;;;;;;5081520;28;20055;-47
2020/12/18 09:57:37;;;;;;;4.20;2.95;;;16.40;51.50;;;;;;5075288;28;20056;-46
2020/12/18 10:00:06;;;;;;;3.85;2.67;;;16.30;51.60;;;;;;5101763;28;20044;-47
2020/12/18 10:02:39;;;;;;;3.30;1.90;;;16.30;51.80;;;;;;5081133;28;20052;-50
2020/12/18 10:05:06;;;;;;;4.45;1.88;;;16.20;51.90;;;;;;5084437;28;20044;-50
2020/12/18 10:07:33;;;;;;;8.40;1.60;;;16.20;52.00;;;;;;5076376;28;20068;-49
2020/12/18 10:10:00;;;;;;;3.22;1.90;;;16.20;52.20;;;;;;5080823;28;20041;-51
2020/12/18 10:12:28;;;;;;;6.22;1.92;;;16.10;52.20;;;;;;5073348;28;20098;-52
2020/12/18 10:14:54;;;;;;;3.47;1.20;;;16.10;52.30;;;;;;5077766;28;20068;-50
2020/12/18 10:17:21;;;;;;;26.42;2.83;;;16.10;53.10;;;;;;5071545;28;20129;-46
2020/12/18 10:19:48;;;;;;;9.05;1.67;;;16.10;53.80;;;;;;5074503;28;20407;-45
2020/12/18 10:22:15;;;;;;;3.50;1.13;;;16.20;54.50;;;;;;5072644;28;20046;-45
2020/12/18 10:24:42;;;;;;;5.88;1.75;;;16.20;54.80;;;;;;5076235;28;20040;-45
2020/12/18 10:27:08;;;;;;;3.67;1.35;;;16.30;55.20;;;;;;5072224;28;20397;-46
2020/12/18 10:29:36;;;;;;;6.70;1.60;;;16.40;55.30;;;;;;5076054;28;20051;-46
2020/12/18 10:32:03;;;;;;;10.18;2.78;;;16.50;56.10;;;;;;5072444;28;20072;-48
2020/12/18 10:34:31;;;;;;;8.18;2.08;;;16.50;55.60;;;;;;5083221;28;20052;-51
2020/12/18 10:36:57;;;;;;;5.18;1.05;;;16.60;55.70;;;;;;5083522;28;20057;-48
2020/12/18 10:39:25;;;;;;;5.72;1.30;;;16.70;55.70;;;;;;5077376;28;20087;-54
2020/12/18 10:41:52;;;;;;;3.80;2.08;;;16.80;55.90;;;;;;5072659;28;20052;-46
2020/12/18 10:44:19;;;;;;;7.15;2.67;;;16.90;55.90;;;;;;5072643;28;20049;-49
2020/12/18 10:46:48;;;;;;;3.00;1.35;;;17.00;56.00;;;;;;5079486;28;20040;-50
2020/12/18 10:49:17;;;;;;;6.55;1.52;;;17.10;56.20;;;;;;5073931;28;20085;-46
2020/12/18 10:51:45;;;;;;;6.57;1.50;;;17.10;56.10;;;;;;5067839;28;20044;-51
2020/12/18 10:54:12;;;;;;;1.73;1.63;;;17.20;56.10;;;;;;5071389;28;20044;-54
2020/12/18 10:56:42;;;;;;;4.95;1.45;;;17.20;56.10;;;;;;5077503;28;20143;-48
2020/12/18 10:59:10;;;;;;;2.00;0.60;;;17.30;56.20;;;;;;5071332;28;20495;-50
2020/12/18 11:01:37;;;;;;;5.55;1.10;;;17.40;56.10;;;;;;5072660;28;20058;-50
2020/12/18 11:04:05;;;;;;;4.35;1.38;;;17.40;56.10;;;;;;5068985;28;20045;-51
2020/12/18 11:06:31;;;;;;;3.58;1.10;;;17.50;56.10;;;;;;5074821;28;20113;-48
2020/12/18 11:08:59;;;;;;;1.50;1.00;;;17.60;56.20;;;;;;5079875;28;20561;-50
2020/12/18 11:11:29;;;;;;;3.00;1.15;;;17.60;56.20;;;;;;5072387;28;20059;-54
2020/12/18 11:13:56;;;;;;;3.05;1.05;;;17.70;56.10;;;;;;5077378;28;20059;-49
2020/12/18 11:16:23;;;;;;;1.38;0.80;;;17.70;56.10;;;;;;5068789;28;20048;-47
2020/12/18 11:18:50;;;;;;;2.20;0.70;;;17.80;56.10;;;;;;5082177;28;20041;-49
2020/12/18 11:21:17;;;;;;;3.30;1.40;;;17.80;56.10;;;;;;5074959;28;20151;-49
2020/12/18 11:23:44;;;;;;;2.88;1.88;;;17.80;56.10;;;;;;5076724;28;20106;-45
2020/12/18 11:26:11;;;;;;;1.55;0.60;;;17.90;56.00;;;;;;5071803;28;20523;-53
2020/12/18 11:28:39;;;;;;;2.75;1.02;;;17.90;56.00;;;;;;5074079;28;20055;-48
2020/12/18 11:31:06;;;;;;;3.28;0.80;;;18.00;56.00;;;;;;5070316;28;20123;-46
2020/12/18 11:33:32;;;;;;;3.20;0.60;;;18.00;56.00;;;;;;5075252;28;20059;-46
2020/12/18 11:35:59;;;;;;;3.55;0.70;;;18.00;55.90;;;;;;5073932;28;20101;-48
2020/12/18 11:38:27;;;;;;;2.95;0.75;;;18.10;56.00;;;;;;5074750;28;20064;-49
2020/12/18 11:40:54;;;;;;;1.35;0.40;;;18.10;55.90;;;;;;5075357;28;20466;-47
2020/12/18 11:43:20;;;;;;;4.93;0.52;;;18.20;56.00;;;;;;5072616;28;20056;-45
2020/12/18 11:45:47;;;;;;;4.47;0.55;;;18.20;55.90;;;;;;5066557;28;20045;-46
2020/12/18 11:48:13;;;;;;;3.63;0.55;;;18.20;55.90;;;;;;5075972;28;20040;-46
2020/12/18 11:50:40;;;;;;;2.33;0.57;;;18.20;55.90;;;;;;5077374;28;20071;-49
2020/12/18 11:53:08;;;;;;;1.60;0.50;;;18.30;55.90;;;;;;5070680;28;20056;-51
2020/12/18 11:55:36;;;;;;;4.32;0.32;;;18.30;55.90;;;;;;5079496;28;20069;-47
2020/12/18 11:58:03;;;;;;;3.50;0.57;;;18.30;55.80;;;;;;5071639;28;20056;-46
2020/12/18 12:00:30;;;;;;;2.00;0.85;;;18.30;55.80;;;;;;5075636;28;20048;-49
2020/12/18 12:02:56;;;;;;;1.85;0.60;;;18.40;55.80;;;;;;5072015;28;20055;-52
2020/12/18 12:05:24;;;;;;;3.05;0.40;;;18.40;55.80;;;;;;5075120;28;20526;-45
2020/12/18 12:07:51;;;;;;;1.75;0.75;;;18.40;55.80;;;;;;5074328;28;20046;-47
2020/12/18 12:10:19;;;;;;;2.70;0.65;;;18.40;55.80;;;;;;5077821;28;20174;-48
2020/12/18 12:12:47;;;;;;;4.50;0.77;;;18.40;55.70;;;;;;5094347;28;20056;-51
2020/12/18 12:15:15;;;;;;;5.38;0.90;;;18.50;54.70;;;;;;5099720;28;20075;-51
2020/12/18 12:17:42;;;;;;;4.93;0.88;;;18.50;54.20;;;;;;5092903;28;20136;-59
2020/12/18 12:20:08;;;;;;;2.40;1.05;;;18.60;54.00;;;;;;5098049;28;20039;-54
2020/12/18 12:22:36;;;;;;;2.80;0.98;;;18.60;53.60;;;;;;5085475;28;20143;-55
2020/12/18 12:25:03;;;;;;;0.90;0.47;;;18.60;53.00;;;;;;5082178;28;20040;-52
2020/12/18 12:27:29;;;;;;;2.97;0.63;;;18.60;52.60;;;;;;5079493;28;20036;-59
2020/12/18 12:29:57;;;;;;;0.70;0.70;;;18.60;52.20;;;;;;5081998;28;20127;-50
2020/12/18 12:32:25;;;;;;;1.55;0.85;;;18.70;51.90;;;;;;5079385;28;21038;-49
2020/12/18 12:34:51;;;;;;;1.23;1.02;;;18.70;51.60;;;;;;5079711;28;20512;-50
2020/12/18 12:37:18;;;;;;;2.38;0.60;;;18.70;51.40;;;;;;5070727;28;20067;-47
2020/12/18 12:39:48;;;;;;;2.38;0.68;;;18.70;51.10;;;;;;5084926;28;20047;-49
2020/12/18 12:42:14;;;;;;;0.90;0.60;;;18.70;51.00;;;;;;5080096;28;20059;-57
2020/12/18 12:44:41;;;;;;;1.60;0.93;;;18.70;50.90;;;;;;5077875;28;20510;-52
2020/12/18 12:47:08;;;;;;;1.38;0.52;;;18.70;50.90;;;;;;5080152;28;20170;-49
2020/12/18 12:49:35;;;;;;;1.30;0.32;;;18.70;50.60;;;;;;5077085;28;20504;-49
2020/12/18 12:52:02;;;;;;;2.30;0.35;;;18.70;50.30;;;;;;5077808;28;20052;-48
2020/12/18 12:54:29;;;;;;;2.58;0.90;;;18.70;50.20;;;;;;5075339;28;20043;-48
2020/12/18 12:56:56;;;;;;;3.35;0.60;;;18.70;50.00;;;;;;5080322;28;20507;-48
2020/12/18 12:59:23;;;;;;;0.52;0.38;;;18.70;49.80;;;;;;5077721;28;20055;-50
2020/12/18 13:01:50;;;;;;;1.83;0.45;;;18.70;50.60;;;;;;5073685;28;20090;-56
2020/12/18 13:04:19;;;;;;;3.05;0.40;;;18.70;49.70;;;;;;5078755;28;20164;-52
2020/12/18 13:06:45;;;;;;;1.58;0.80;;;18.70;49.60;;;;;;5072437;28;20121;-59
2020/12/18 13:09:12;;;;;;;1.27;0.50;;;18.70;49.70;;;;;;5079128;28;20121;-58